Time;durP1;ratioP1;P1;durP2;ratioP2;P2;SDS_P1;SDS_P2;PMS_P1;PMS_P2;Temp;Humidity;BMP_temperature;BMP_pressure;BME280_temperature;BME280_humidity;BME280_pressure;Samples;Min_cycle;Max_cycle;Signal;HPM_P1;HPM_P2
2022/09/25 00:01:43;;;;;;;34.65;26.30;;;;;;;13.05;100.00;100663.03;4898154;29;20132;-78
2022/09/25 00:04:10;;;;;;;37.60;27.10;;;;;;;13.02;100.00;100673.88;4899010;29;20056;-77
2022/09/25 00:06:37;;;;;;;34.22;26.05;;;;;;;13.00;100.00;100669.78;4899669;29;20080;-79
2022/09/25 00:09:04;;;;;;;37.83;27.75;;;;;;;13.01;100.00;100668.78;4898378;29;20131;-78
2022/09/25 00:11:32;;;;;;;36.55;28.30;;;;;;;13.04;100.00;100665.81;4899888;29;20091;-78
2022/09/25 00:14:01;;;;;;;36.05;27.27;;;;;;;13.09;100.00;100674.00;4899511;29;20095;-77
2022/09/25 00:16:31;;;;;;;40.55;27.70;;;;;;;13.10;100.00;100678.28;4881289;29;20079;-78
2022/09/25 00:21:44;;;;;;;40.33;28.08;;;;;;;13.05;100.00;100667.47;4880497;29;20064;-78
2022/09/25 00:24:12;;;;;;;38.92;28.40;;;;;;;13.03;100.00;100672.06;4883956;29;20084;-78
2022/09/25 00:26:40;;;;;;;40.20;29.65;;;;;;;13.07;100.00;100665.47;4899337;29;20052;-79
2022/09/25 00:29:09;;;;;;;38.30;28.67;;;;;;;13.08;100.00;100667.94;4900916;29;20068;-79
2022/09/25 00:31:37;;;;;;;37.20;28.98;;;;;;;13.10;100.00;100662.50;4887134;29;20045;-79
2022/09/25 00:34:05;;;;;;;39.63;29.85;;;;;;;13.05;100.00;100651.69;4880502;29;20075;-77
2022/09/25 00:36:33;;;;;;;36.97;29.02;;;;;;;13.11;100.00;100664.16;4878899;29;20140;-78
2022/09/25 00:38:59;;;;;;;40.67;29.70;;;;;;;13.12;100.00;100661.34;4878633;29;20128;-77
2022/09/25 00:41:30;;;;;;;45.38;33.70;;;;;;;13.16;100.00;100670.56;4879220;29;20045;-78
2022/09/25 00:43:59;;;;;;;46.80;33.60;;;;;;;13.14;100.00;100662.00;4878532;29;20148;-78
2022/09/25 00:46:29;;;;;;;36.15;29.02;;;;;;;13.16;100.00;100661.88;4886530;29;20053;-78
2022/09/25 00:49:02;;;;;;;36.75;28.15;;;;;;;13.23;100.00;100671.47;4896918;29;20139;-78
2022/09/25 00:51:33;;;;;;;36.35;27.67;;;;;;;13.24;100.00;100670.50;4898767;29;20048;-76
2022/09/25 00:54:05;;;;;;;37.80;27.70;;;;;;;13.25;100.00;100664.25;4901313;29;20144;-76
2022/09/25 00:56:36;;;;;;;42.60;29.77;;;;;;;13.24;100.00;100667.88;4896500;29;20060;-78
2022/09/25 00:59:04;;;;;;;34.40;27.40;;;;;;;13.20;100.00;100665.78;4899351;29;20161;-78
2022/09/25 01:01:30;;;;;;;36.15;28.80;;;;;;;13.23;100.00;100670.69;4897034;29;20566;-78
2022/09/25 01:03:59;;;;;;;33.95;26.13;;;;;;;13.24;100.00;100673.13;4898227;29;20605;-78
2022/09/25 01:06:27;;;;;;;36.97;27.52;;;;;;;13.24;100.00;100672.31;4896702;29;20509;-78
2022/09/25 01:08:55;;;;;;;33.80;25.75;;;;;;;13.25;100.00;100663.44;4896314;29;20091;-78
2022/09/25 01:11:22;;;;;;;37.17;26.27;;;;;;;13.30;100.00;100669.00;4896285;29;20108;-77
2022/09/25 01:13:48;;;;;;;33.00;25.83;;;;;;;13.28;100.00;100668.34;4890060;29;20128;-78
2022/09/25 01:16:24;;;;;;;31.55;25.20;;;;;;;13.28;100.00;100677.03;4877388;29;20558;-77
2022/09/25 01:19:03;;;;;;;31.23;25.30;;;;;;;13.29;100.00;100669.97;4879968;29;20510;-77
2022/09/25 01:21:37;;;;;;;32.45;23.77;;;;;;;13.29;100.00;100675.25;4876973;29;20570;-77
2022/09/25 01:24:18;;;;;;;31.30;24.08;;;;;;;13.27;100.00;100671.97;4877885;29;20532;-77
2022/09/25 01:27:09;;;;;;;28.00;22.58;;;;;;;13.28;100.00;100663.09;4877237;29;20056;-77
2022/09/25 01:29:44;;;;;;;29.48;22.70;;;;;;;13.23;100.00;100665.44;4875245;29;20116;-77
2022/09/25 01:32:18;;;;;;;30.15;21.15;;;;;;;13.19;100.00;100667.59;4876799;29;20524;-79
2022/09/25 01:34:52;;;;;;;29.48;22.52;;;;;;;13.18;100.00;100670.41;4877134;29;20055;-78
2022/09/25 01:37:26;;;;;;;23.98;19.95;;;;;;;13.18;100.00;100673.84;4890070;29;20075;-79
2022/09/25 01:40:01;;;;;;;28.98;20.88;;;;;;;13.19;100.00;100674.66;4884865;29;20049;-79
2022/09/25 01:42:34;;;;;;;25.02;19.92;;;;;;;13.18;100.00;100673.03;4882152;29;20060;-79
2022/09/25 01:45:08;;;;;;;28.88;20.60;;;;;;;13.13;100.00;100668.25;4895618;29;20052;-79
2022/09/25 01:47:37;;;;;;;25.75;19.15;;;;;;;13.13;100.00;100677.94;4905726;29;20406;-79
2022/09/25 01:50:12;;;;;;;29.30;20.15;;;;;;;13.14;100.00;100666.44;4901331;29;20048;-79
2022/09/25 01:52:44;;;;;;;26.95;19.45;;;;;;;13.10;100.00;100665.13;4904765;29;20052;-80
2022/09/25 01:55:16;;;;;;;27.80;19.48;;;;;;;13.13;100.00;100681.38;4908748;29;20061;-79
2022/09/25 01:57:51;;;;;;;30.17;19.93;;;;;;;13.11;100.00;100672.03;4892462;29;20121;-79
2022/09/25 02:00:24;;;;;;;32.20;19.23;;;;;;;13.09;100.00;100663.50;4887041;29;20301;-77
2022/09/25 02:02:56;;;;;;;26.10;19.55;;;;;;;13.07;100.00;100670.72;4910797;29;20048;-78
2022/09/25 02:05:28;;;;;;;32.78;19.75;;;;;;;13.07;100.00;100670.72;4907378;29;20143;-80
2022/09/25 02:08:00;;;;;;;27.35;19.92;;;;;;;12.99;100.00;100662.88;4906714;29;20127;-80
2022/09/25 02:10:33;;;;;;;30.63;20.13;;;;;;;13.03;100.00;100674.69;4910601;29;20103;-79
2022/09/25 02:13:05;;;;;;;29.35;19.63;;;;;;;13.02;100.00;100676.50;4907181;29;20794;-79
2022/09/25 02:15:37;;;;;;;29.27;19.92;;;;;;;13.03;100.00;100672.06;4895896;29;20113;-79
2022/09/25 02:20:59;;;;;;;26.27;17.58;;;;;;;13.01;100.00;100671.41;4892196;29;20085;-78
2022/09/25 02:23:34;;;;;;;24.13;16.02;;;;;;;12.99;100.00;100676.03;4892067;29;20189;-79
2022/09/25 02:26:05;;;;;;;26.90;17.20;;;;;;;12.94;100.00;100672.09;4888633;29;20510;-78
2022/09/25 02:28:33;;;;;;;27.55;15.82;;;;;;;12.91;100.00;100677.69;4882411;29;20080;-78
2022/09/25 02:31:05;;;;;;;21.00;14.70;;;;;;;12.91;100.00;100672.44;4883739;29;20049;-79
2022/09/25 02:33:32;;;;;;;24.20;13.73;;;;;;;12.94;100.00;100682.59;4908452;29;20053;-79
2022/09/25 02:36:01;;;;;;;22.45;13.45;;;;;;;12.95;100.00;100678.16;4913615;29;20076;-80
2022/09/25 02:38:30;;;;;;;19.00;12.77;;;;;;;12.89;100.00;100674.41;4907246;29;20053;-79
2022/09/25 02:41:06;;;;;;;20.88;11.02;;;;;;;12.94;100.00;100677.34;4895012;29;20073;-79
2022/09/25 02:43:41;;;;;;;20.50;10.63;;;;;;;12.85;100.00;100683.63;4894899;29;20056;-78
2022/09/25 02:46:18;;;;;;;15.90;10.23;;;;;;;12.86;100.00;100687.88;4906188;29;20060;-79
2022/09/25 02:48:53;;;;;;;20.45;10.05;;;;;;;12.89;100.00;100690.16;4912967;29;20052;-80
2022/09/25 02:51:28;;;;;;;16.73;9.55;;;;;;;12.93;100.00;100680.97;4907381;29;20052;-80
2022/09/25 02:54:05;;;;;;;16.27;8.73;;;;;;;12.88;100.00;100679.81;4911757;29;20087;-79
2022/09/25 02:56:35;;;;;;;17.65;9.35;;;;;;;12.87;100.00;100681.63;4893786;29;20060;-79
2022/09/25 02:59:07;;;;;;;14.27;7.60;;;;;;;12.90;100.00;100683.91;4893807;29;20095;-79
2022/09/25 03:01:40;;;;;;;14.30;7.63;;;;;;;12.83;100.00;100680.34;4910363;29;20040;-80
2022/09/25 03:04:07;;;;;;;;;;;;;;;12.83;100.00;100679.50;4915363;29;20104;-80
2022/09/25 03:06:34;;;;;;;17.65;7.43;;;;;;;12.78;100.00;100669.50;4907366;29;19931;-80
2022/09/25 03:09:01;;;;;;;15.20;7.70;;;;;;;12.74;100.00;100676.13;4893523;29;20072;-79
2022/09/25 03:11:28;;;;;;;11.43;6.65;;;;;;;12.69;100.00;100673.19;4893498;29;20109;-80
2022/09/25 03:13:59;;;;;;;13.50;6.82;;;;;;;12.66;100.00;100681.38;4886731;29;20475;-79
2022/09/25 03:16:34;;;;;;;13.70;6.78;;;;;;;12.67;100.00;100683.03;4900882;29;20044;-79
2022/09/25 03:19:03;;;;;;;15.77;5.95;;;;;;;12.71;100.00;100684.34;4889806;29;20079;-80
2022/09/25 03:21:30;;;;;;;13.77;5.70;;;;;;;12.68;100.00;100686.47;4880211;29;20061;-77
2022/09/25 03:23:57;;;;;;;14.02;5.70;;;;;;;12.66;100.00;100683.19;4886175;29;20057;-80
2022/09/25 03:26:24;;;;;;;18.33;5.68;;;;;;;12.63;100.00;100689.59;4889384;29;20061;-80
2022/09/25 03:28:51;;;;;;;11.23;5.95;;;;;;;12.62;100.00;100687.97;4897582;29;20052;-79
2022/09/25 03:31:17;;;;;;;13.40;6.53;;;;;;;12.62;100.00;100691.41;4909934;29;20076;-78
2022/09/25 03:33:45;;;;;;;12.27;6.25;;;;;;;12.63;100.00;100686.97;4905835;29;20092;-79
2022/09/25 03:36:15;;;;;;;13.90;8.15;;;;;;;12.65;100.00;100690.25;4899709;29;20127;-79
2022/09/25 03:38:44;;;;;;;14.38;7.97;;;;;;;12.64;100.00;100688.63;4887242;29;20068;-79
2022/09/25 03:41:19;;;;;;;12.30;8.82;;;;;;;12.59;100.00;100699.63;4886421;29;20101;-80
2022/09/25 03:43:47;;;;;;;15.60;10.45;;;;;;;12.47;100.00;100690.44;4885799;29;20085;-79
2022/09/25 03:46:15;;;;;;;18.70;11.15;;;;;;;12.38;100.00;100691.44;4882203;29;20053;-79
2022/09/25 03:48:42;;;;;;;15.43;11.43;;;;;;;12.37;100.00;100694.22;4879377;29;20081;-79
2022/09/25 03:51:09;;;;;;;17.63;11.77;;;;;;;12.25;100.00;100697.22;4881984;29;20151;-79
2022/09/25 03:53:37;;;;;;;21.10;12.40;;;;;;;12.23;100.00;100688.69;4880832;29;20057;-78
2022/09/25 03:56:06;;;;;;;17.85;11.38;;;;;;;12.23;100.00;100690.50;4880756;29;20133;-78
2022/09/25 03:58:32;;;;;;;23.33;11.85;;;;;;;12.23;100.00;100698.34;4883617;29;20156;-79
2022/09/25 04:01:00;;;;;;;19.63;11.10;;;;;;;12.22;100.00;100697.53;4904606;29;20108;-79
2022/09/25 04:03:28;;;;;;;14.45;10.05;;;;;;;12.25;100.00;100704.25;4901648;29;20501;-79
2022/09/25 04:05:55;;;;;;;18.73;9.23;;;;;;;12.17;100.00;100689.34;4899673;29;20144;-78
2022/09/25 04:08:25;;;;;;;16.30;8.35;;;;;;;12.22;100.00;100691.47;4903512;29;20051;-79
2022/09/25 04:10:55;;;;;;;16.90;8.07;;;;;;;12.21;100.00;100693.28;4903481;29;20506;-78
2022/09/25 04:13:21;;;;;;;17.02;7.50;;;;;;;12.18;100.00;100690.97;4899172;29;20078;-78
2022/09/25 04:15:48;;;;;;;13.65;7.10;;;;;;;12.23;100.00;100701.81;4897296;29;20424;-78
2022/09/25 04:18:15;;;;;;;12.10;6.40;;;;;;;12.26;100.00;100698.84;4894169;29;20462;-79
2022/09/25 04:20:41;;;;;;;15.48;6.65;;;;;;;12.28;100.00;100702.13;4879520;29;20160;-78
2022/09/25 04:23:08;;;;;;;15.35;7.07;;;;;;;12.28;100.00;100698.69;4880610;29;20141;-79
2022/09/25 04:25:35;;;;;;;14.60;5.88;;;;;;;12.30;100.00;100696.69;4899213;29;20556;-78
2022/09/25 04:28:04;;;;;;;13.95;6.07;;;;;;;12.23;100.00;100691.31;4909323;29;20131;-81
2022/09/25 04:36:02;;;;;;;12.18;5.15;;;;;;;12.15;100.00;100677.38;4971588;28;20083;-80
2022/09/25 04:38:34;;;;;;;11.20;5.25;;;;;;;12.25;100.00;100689.34;4950801;29;20515;-83
2022/09/25 04:41:04;;;;;;;19.75;5.40;;;;;;;12.26;100.00;100698.84;4938171;29;20055;-82
2022/09/25 04:43:38;;;;;;;16.15;5.32;;;;;;;12.15;100.00;100683.44;4930760;29;20052;-83
2022/09/25 04:46:10;;;;;;;14.82;5.30;;;;;;;12.20;100.00;100699.50;4943881;29;20051;-83
2022/09/25 04:49:03;;;;;;;12.68;5.40;;;;;;;12.14;100.00;100696.72;4947293;29;20146;-83
2022/09/25 04:52:04;;;;;;;15.10;5.35;;;;;;;12.06;100.00;100681.78;4948230;29;20055;-82
2022/09/25 04:54:45;;;;;;;13.65;5.78;;;;;;;12.20;100.00;100699.50;4929003;29;20509;-83
2022/09/25 04:57:15;;;;;;;12.55;4.90;;;;;;;12.15;100.00;100701.81;4928281;29;20083;-83
2022/09/25 04:59:44;;;;;;;9.07;4.60;;;;;;;12.21;100.00;100701.16;4940089;29;20204;-83
2022/09/25 05:02:11;;;;;;;10.43;5.03;;;;;;;12.18;100.00;100706.72;4944020;29;20142;-84
2022/09/25 05:04:37;;;;;;;10.50;4.47;;;;;;;12.20;100.00;100707.38;4945849;29;20071;-82
2022/09/25 05:07:05;;;;;;;15.15;4.93;;;;;;;12.18;100.00;100700.66;4944849;29;20054;-84
2022/09/25 05:09:32;;;;;;;15.35;4.55;;;;;;;12.18;100.00;100711.97;4942811;29;20052;-83
2022/09/25 05:12:01;;;;;;;10.57;4.45;;;;;;;12.17;100.00;100702.47;4944125;29;20142;-83
2022/09/25 05:14:29;;;;;;;11.43;4.75;;;;;;;12.06;100.00;100701.97;4945062;29;20047;-82
2022/09/25 05:17:01;;;;;;;11.27;4.72;;;;;;;11.96;100.00;100697.69;4944205;29;20155;-82
2022/09/25 05:19:28;;;;;;;13.65;5.28;;;;;;;11.99;100.00;100712.28;4944259;29;20048;-81
2022/09/25 05:21:55;;;;;;;10.85;4.40;;;;;;;11.93;100.00;100702.44;4947162;29;20051;-82
2022/09/25 05:24:37;;;;;;;;;;;;;;;;;;;;;
2022/09/25 05:27:07;;;;;;;10.45;4.30;;;;;;;11.87;100.00;100708.31;4947340;29;20051;-79
2022/09/25 05:29:34;;;;;;;12.45;4.72;;;;;;;11.78;100.00;100712.78;4947069;29;20055;-81
2022/09/25 05:32:03;;;;;;;21.40;6.53;;;;;;;11.78;100.00;100715.38;4947533;29;20051;-82
2022/09/25 05:34:29;;;;;;;12.20;4.90;;;;;;;11.59;100.00;100686.81;4947755;29;20055;-83
2022/09/25 05:36:59;;;;;;;11.45;4.70;;;;;;;11.69;100.00;100705.84;4946628;29;20055;-82
2022/09/25 05:39:39;;;;;;;10.85;5.18;;;;;;;11.62;100.00;100702.22;4947052;29;20043;-84
2022/09/25 05:42:18;;;;;;;14.63;5.05;;;;;;;11.66;100.00;100710.56;4945232;29;20075;-84
2022/09/25 05:44:47;;;;;;;13.10;4.80;;;;;;;11.63;100.00;100723.03;4948638;29;20076;-82
2022/09/25 05:47:17;;;;;;;13.43;4.78;;;;;;;11.62;100.00;100713.53;4947254;29;20048;-84
2022/09/25 05:49:44;;;;;;;12.90;4.68;;;;;;;11.57;100.00;100701.88;4948852;29;20090;-84
2022/09/25 05:52:10;;;;;;;12.63;5.00;;;;;;;11.55;100.00;100704.66;4948126;29;20048;-84
2022/09/25 05:54:37;;;;;;;14.70;5.32;;;;;;;11.45;100.00;100703.97;4947645;29;20091;-84
2022/09/25 05:57:04;;;;;;;9.88;5.03;;;;;;;11.45;100.00;100703.16;4947347;29;20047;-84
2022/09/25 05:59:30;;;;;;;14.57;5.18;;;;;;;11.40;100.00;100715.91;4948560;29;20106;-80
2022/09/25 06:01:57;;;;;;;14.32;5.20;;;;;;;11.34;100.00;100721.81;4948694;29;20090;-80
2022/09/25 06:04:26;;;;;;;16.60;5.97;;;;;;;11.30;100.00;100713.44;4950229;29;20079;-81
2022/09/25 06:06:56;;;;;;;15.90;5.95;;;;;;;11.26;100.00;100719.97;4951000;29;20072;-84
2022/09/25 06:09:23;;;;;;;18.38;5.70;;;;;;;11.22;100.00;100721.25;4950706;29;20072;-81
2022/09/25 06:11:50;;;;;;;13.30;5.63;;;;;;;11.19;100.00;100724.19;4949918;29;20060;-82
2022/09/25 06:14:27;;;;;;;16.63;5.72;;;;;;;11.14;100.00;100727.28;4949462;29;20063;-83
2022/09/25 06:20:34;;;;;;;13.68;5.47;;;;;;;11.16;100.00;100722.72;4888565;29;20060;-83
2022/09/25 06:26:38;;;;;;;15.75;5.45;;;;;;;11.12;100.00;100733.66;4950590;29;20051;-83
2022/09/25 06:29:11;;;;;;;12.75;5.30;;;;;;;11.10;100.00;100740.84;4951555;29;20047;-84
2022/09/25 06:37:39;;;;;;;10.32;5.45;;;;;;;11.17;100.00;100747.94;4916200;29;20084;-84
2022/09/25 06:40:09;;;;;;;14.40;5.38;;;;;;;11.09;100.00;100739.22;4953505;29;20071;-83
2022/09/25 06:43:05;;;;;;;11.45;5.18;;;;;;;11.10;100.00;100746.09;4953950;29;20055;-83
2022/09/25 06:45:46;;;;;;;19.35;5.85;;;;;;;11.08;100.00;100737.56;4952114;29;20047;-84
2022/09/25 06:48:22;;;;;;;18.17;5.82;;;;;;;11.14;100.00;100747.41;4951243;29;20052;-82
2022/09/25 06:53:58;;;;;;;14.15;6.30;;;;;;;11.24;100.00;100748.13;4952330;29;20048;-84
2022/09/25 06:56:26;;;;;;;13.88;6.38;;;;;;;11.44;100.00;100762.59;4951725;29;20481;-83
2022/09/25 06:58:53;;;;;;;12.90;6.25;;;;;;;11.80;100.00;100758.00;4949315;29;20039;-85
2022/09/25 07:01:20;;;;;;;16.00;5.97;;;;;;;12.40;100.00;100754.25;4949787;29;20055;-85
2022/09/25 07:03:46;;;;;;;11.70;5.78;;;;;;;12.73;99.22;100760.31;4950114;29;20172;-84
2022/09/25 07:06:15;;;;;;;9.98;5.22;;;;;;;13.04;98.05;100761.22;4950963;29;20052;-84
2022/09/25 07:08:46;;;;;;;11.80;4.85;;;;;;;13.66;95.04;100768.38;4950438;29;20044;-82
2022/09/25 07:11:16;;;;;;;13.18;5.57;;;;;;;14.01;90.47;100765.19;4951910;29;20504;-83
2022/09/25 07:13:44;;;;;;;13.88;5.20;;;;;;;14.65;88.66;100763.03;4951985;29;20107;-84
2022/09/25 07:16:15;;;;;;;14.23;4.95;;;;;;;15.32;85.24;100776.16;4949362;29;20055;-81
2022/09/25 07:18:44;;;;;;;10.85;5.07;;;;;;;15.75;82.88;100769.19;4949510;29;20138;-82
2022/09/25 07:21:24;;;;;;;12.60;4.95;;;;;;;16.52;80.50;100777.25;4949164;29;20075;-83
2022/09/25 07:24:06;;;;;;;10.27;3.97;;;;;;;17.34;77.40;100779.22;4947759;29;20060;-83
2022/09/25 07:26:33;;;;;;;10.93;4.55;;;;;;;17.82;74.96;100780.03;4947311;29;20052;-82
2022/09/25 07:29:03;;;;;;;11.88;4.57;;;;;;;17.70;74.07;100772.84;4946610;29;20078;-84
2022/09/25 07:31:40;;;;;;;9.07;4.38;;;;;;;17.29;74.30;100770.22;4948877;29;20047;-82
2022/09/25 07:34:08;;;;;;;15.15;4.35;;;;;;;16.49;76.24;100761.78;4946209;29;20516;-81
2022/09/25 07:36:37;;;;;;;11.20;4.65;;;;;;;16.08;78.00;100758.16;4945334;29;20573;-81
2022/09/25 07:39:25;;;;;;;11.32;4.10;;;;;;;15.91;78.09;100754.97;4944728;29;20083;-82
2022/09/25 07:41:59;;;;;;;14.15;4.55;;;;;;;15.35;79.64;100743.34;4945831;29;20079;-82
2022/09/25 07:44:42;;;;;;;10.95;3.80;;;;;;;15.66;79.65;100751.84;4946940;29;20052;-80
2022/09/25 07:47:34;;;;;;;7.03;3.53;;;;;;;15.56;79.20;100757.44;4946815;29;20138;-81
2022/09/25 07:50:03;;;;;;;7.82;3.20;;;;;;;15.69;78.46;100745.38;4948360;29;20127;-84
2022/09/25 07:52:30;;;;;;;16.08;3.90;;;;;;;15.14;79.08;100744.06;4950607;29;20051;-81
2022/09/25 07:54:58;;;;;;;17.23;3.63;;;;;;;15.18;78.18;100745.34;4949999;29;20044;-81
2022/09/25 07:57:26;;;;;;;13.00;3.20;;;;;;;14.84;79.70;100757.25;4946121;29;20437;-79
2022/09/25 07:59:56;;;;;;;10.70;3.25;;;;;;;14.50;80.51;100738.50;4949893;28;20051;-80
2022/09/25 08:02:26;;;;;;;14.15;3.60;;;;;;;14.36;81.37;100747.16;4935865;29;20044;-81
2022/09/25 08:04:53;;;;;;;17.15;3.65;;;;;;;14.49;81.49;100753.50;4934046;29;20055;-81
2022/09/25 08:07:27;;;;;;;10.98;3.42;;;;;;;14.23;81.24;100740.69;4934088;29;20052;-81
2022/09/25 08:09:54;;;;;;;11.60;3.58;;;;;;;14.31;81.64;100745.06;4935261;29;20465;-83
2022/09/25 08:12:23;;;;;;;11.38;3.40;;;;;;;14.22;81.61;100735.59;4941275;29;20083;-80
2022/09/25 08:14:49;;;;;;;11.63;3.20;;;;;;;14.70;80.02;100729.09;4931078;29;20103;-80
2022/09/25 08:17:21;;;;;;;11.25;4.05;;;;;;;14.88;78.71;100739.28;4929676;29;20055;-83
2022/09/25 08:19:50;;;;;;;6.75;3.33;;;;;;;15.88;77.56;100763.25;4944662;29;20047;-80
2022/09/25 08:22:16;;;;;;;18.33;4.05;;;;;;;15.95;76.59;100755.41;4943811;29;20131;-81
2022/09/25 08:24:45;;;;;;;13.65;3.85;;;;;;;15.38;77.89;100743.78;4929921;29;20469;-79
2022/09/25 08:27:12;;;;;;;10.02;4.03;;;;;;;15.39;80.13;100761.25;4929906;29;20046;-81
2022/09/25 08:29:54;;;;;;;8.23;3.97;;;;;;;15.20;79.85;100741.53;4927478;29;20108;-80
2022/09/25 08:32:23;;;;;;;11.77;3.95;;;;;;;15.96;78.26;100759.69;4929286;29;20060;-82
2022/09/25 08:34:54;;;;;;;9.75;4.03;;;;;;;16.01;78.08;100781.06;4928603;29;20056;-80
2022/09/25 08:37:25;;;;;;;12.57;4.18;;;;;;;15.68;78.40;100739.28;4929715;29;20051;-80
2022/09/25 08:39:57;;;;;;;12.60;3.78;;;;;;;16.08;76.86;100755.50;4928758;29;20116;-82
2022/09/25 08:42:29;;;;;;;15.60;4.38;;;;;;;16.11;75.77;100750.66;4929729;29;20056;-84
2022/09/25 08:50:39;;;;;;;18.52;4.10;;;;;;;15.52;76.27;100756.13;4899801;29;19923;-80
2022/09/25 08:53:16;;;;;;;10.73;3.47;;;;;;;15.63;75.72;100762.75;4900508;29;20056;-80
2022/09/25 08:58:33;;;;;;;11.52;3.75;;;;;;;15.34;76.90;100763.63;4901492;29;20139;-82
2022/09/25 09:01:06;;;;;;;13.13;4.07;;;;;;;15.99;76.10;100765.41;4908805;29;20043;-79
2022/09/25 09:03:44;;;;;;;10.73;4.38;;;;;;;15.52;75.61;100758.78;4921315;29;20072;-80
2022/09/25 09:06:14;;;;;;;11.70;5.13;;;;;;;15.29;77.27;100760.69;4926724;29;20052;-80
2022/09/25 09:08:44;;;;;;;13.80;4.80;;;;;;;15.32;79.38;100770.88;4925784;29;20071;-80
2022/09/25 09:11:15;;;;;;;10.52;4.03;;;;;;;15.80;76.65;100769.47;4926897;29;20079;-81
2022/09/25 09:13:50;;;;;;;12.15;4.35;;;;;;;15.97;74.90;100754.22;4926846;29;20072;-81
2022/09/25 09:16:27;;;;;;;9.38;3.88;;;;;;;16.16;73.68;100755.38;4925309;29;20421;-79
2022/09/25 09:19:02;;;;;;;11.55;3.97;;;;;;;16.38;73.20;100772.03;4926289;29;20048;-80
2022/09/25 09:21:36;;;;;;;10.30;3.40;;;;;;;16.30;72.87;100774.81;4926466;29;20059;-80
2022/09/25 09:24:15;;;;;;;10.25;3.63;;;;;;;16.36;72.25;100774.06;4926837;29;20056;-78
2022/09/25 09:27:02;;;;;;;11.98;4.30;;;;;;;16.58;72.26;100757.97;4925198;29;20084;-80
2022/09/25 09:29:48;;;;;;;9.50;3.72;;;;;;;17.10;70.88;100766.47;4924210;29;20067;-81
2022/09/25 09:32:31;;;;;;;8.90;2.90;;;;;;;17.01;69.58;100757.09;4923381;29;20111;-81
2022/09/25 09:35:10;;;;;;;7.47;4.07;;;;;;;16.85;69.16;100752.91;4925721;29;20076;-78
2022/09/25 09:37:59;;;;;;;;;;;;;;;;;;;;;
2022/09/25 09:40:45;;;;;;;8.20;3.50;;;;;;;16.39;72.40;100763.13;4926465;29;20060;-80
2022/09/25 09:43:23;;;;;;;14.27;4.68;;;;;;;16.24;71.14;100761.34;4944889;29;20051;-80
2022/09/25 09:45:59;;;;;;;12.38;4.07;;;;;;;16.27;72.03;100752.25;4934635;29;20044;-80
2022/09/25 09:48:34;;;;;;;8.25;3.67;;;;;;;16.02;71.91;100757.09;4925928;29;20052;-81
2022/09/25 09:51:11;;;;;;;10.95;3.88;;;;;;;15.69;72.56;100746.19;4927619;29;20150;-80
2022/09/25 09:53:42;;;;;;;10.07;3.45;;;;;;;15.22;72.77;100744.78;4940488;29;20512;-81
2022/09/25 09:56:13;;;;;;;11.07;3.50;;;;;;;15.11;73.26;100737.38;4939085;29;20119;-79
2022/09/25 09:58:46;;;;;;;8.60;3.72;;;;;;;15.53;72.31;100755.13;4910641;29;20048;-80
2022/09/25 10:01:14;;;;;;;14.30;4.00;;;;;;;15.91;71.10;100739.94;4921095;29;20048;-81
2022/09/25 10:03:46;;;;;;;9.23;3.50;;;;;;;16.28;70.97;100745.97;4931791;29;20078;-80
2022/09/25 10:06:19;;;;;;;14.15;4.20;;;;;;;16.39;70.35;100736.72;4932405;29;20125;-80
2022/09/25 10:08:45;;;;;;;7.75;3.40;;;;;;;16.71;68.34;100741.44;4934181;29;20102;-83
2022/09/25 10:11:17;;;;;;;11.30;3.95;;;;;;;16.69;66.58;100717.03;4934800;29;20052;-82
2022/09/25 10:13:45;;;;;;;11.05;4.20;;;;;;;16.35;65.36;100719.59;4930741;29;20052;-81
2022/09/25 10:16:15;;;;;;;12.02;5.43;;;;;;;16.29;67.58;100720.38;4929267;29;20076;-81
2022/09/25 10:18:46;;;;;;;12.32;4.40;;;;;;;16.24;67.64;100724.41;4928216;29;20048;-79
2022/09/25 10:21:18;;;;;;;11.95;4.07;;;;;;;15.94;68.13;100722.91;4928923;29;20055;-81
2022/09/25 10:23:49;;;;;;;8.00;4.27;;;;;;;15.78;69.81;100728.44;4930588;29;20092;-82
2022/09/25 10:26:28;;;;;;;9.75;3.50;;;;;;;16.02;68.47;100730.72;4930363;29;20135;-83
2022/09/25 10:28:59;;;;;;;5.57;3.05;;;;;;;16.13;63.91;100737.28;4930821;29;20064;-82
2022/09/25 10:31:28;;;;;;;4.93;2.33;;;;;;;16.04;63.79;100731.34;4942537;23;20036;-78
2022/09/25 10:34:01;;;;;;;7.22;2.42;;;;;;;16.08;62.78;100719.38;4943449;29;20058;-79
2022/09/25 10:36:39;;;;;;;4.13;2.50;;;;;;;16.40;62.48;100725.13;4928582;29;20058;-80
2022/09/25 10:39:28;;;;;;;4.55;2.55;;;;;;;16.31;63.53;100718.34;4924306;29;20116;-80
2022/09/25 10:41:57;;;;;;;8.77;3.40;;;;;;;16.80;63.59;100719.13;4920228;29;20052;-81
2022/09/25 10:44:32;;;;;;;10.32;3.60;;;;;;;16.71;64.33;100722.94;4909226;29;20053;-81
2022/09/25 10:50:18;;;;;;;8.43;3.05;;;;;;;16.67;63.15;100715.59;4906360;29;20060;-81
2022/09/25 10:52:51;;;;;;;6.32;2.80;;;;;;;16.99;62.63;100716.81;4910094;29;20048;-80
2022/09/25 10:55:27;;;;;;;7.13;2.88;;;;;;;17.02;62.25;100716.38;4908519;29;20052;-80
2022/09/25 10:57:59;;;;;;;7.30;2.75;;;;;;;16.60;61.01;100718.16;4909938;29;20112;-80
2022/09/25 11:00:26;;;;;;;5.93;2.30;;;;;;;16.44;62.35;100714.00;4912063;29;20076;-80
2022/09/25 11:02:57;;;;;;;12.52;2.80;;;;;;;16.85;62.12;100726.47;4907423;29;20371;-80
2022/09/25 11:05:28;;;;;;;7.25;2.53;;;;;;;16.98;62.64;100725.75;4907768;29;20116;-79
2022/09/25 11:07:58;;;;;;;6.22;2.70;;;;;;;17.21;61.53;100720.97;4907463;29;20091;-80
2022/09/25 11:10:29;;;;;;;5.70;2.33;;;;;;;17.12;60.15;100711.56;4905505;29;20048;-80
2022/09/25 11:12:57;;;;;;;6.28;2.53;;;;;;;17.03;60.02;100712.72;4911481;29;20540;-78
2022/09/25 11:15:28;;;;;;;9.32;2.50;;;;;;;16.79;60.61;100701.66;4904808;29;20057;-78
2022/09/25 11:17:57;;;;;;;7.03;2.67;;;;;;;16.81;61.17;100710.19;4906895;29;20052;-80
2022/09/25 11:20:28;;;;;;;5.70;2.45;;;;;;;16.62;61.06;100702.09;4904306;29;20060;-78
2022/09/25 11:23:15;;;;;;;4.97;2.45;;;;;;;16.79;60.48;100712.22;4903972;29;20073;-81
2022/09/25 11:25:46;;;;;;;7.15;3.20;;;;;;;17.19;61.87;100717.69;4903103;29;20080;-79
2022/09/25 11:28:28;;;;;;;7.13;3.83;;;;;;;17.20;62.23;100714.03;4907239;29;20060;-82
2022/09/25 11:31:02;;;;;;;7.15;4.22;;;;;;;17.02;62.62;100709.28;4903713;29;20049;-79
2022/09/25 11:33:41;;;;;;;8.73;4.55;;;;;;;16.81;62.16;100712.84;4905651;29;20072;-80
2022/09/25 11:36:14;;;;;;;7.88;4.15;;;;;;;16.84;62.06;100709.81;4908482;29;20052;-80
2022/09/25 11:41:42;;;;;;;7.03;4.18;;;;;;;17.40;59.86;100706.19;4906701;29;20154;-79
2022/09/25 11:44:23;;;;;;;9.85;4.38;;;;;;;17.55;60.51;100709.47;4906167;29;20057;-81
2022/09/25 11:47:00;;;;;;;8.38;3.80;;;;;;;16.96;60.46;100702.16;4905261;29;20081;-79
2022/09/25 11:49:30;;;;;;;7.20;3.65;;;;;;;17.04;60.30;100703.78;4904433;29;20206;-81
2022/09/25 11:52:20;;;;;;;7.97;3.88;;;;;;;17.48;60.10;100713.97;4902065;29;20565;-79
2022/09/25 11:55:20;;;;;;;6.50;3.55;;;;;;;17.40;58.85;100699.06;4898280;29;20146;-77
2022/09/25 11:57:59;;;;;;;13.63;3.72;;;;;;;17.64;58.30;100703.00;4890571;29;20091;-78
2022/09/25 12:00:43;;;;;;;9.55;4.75;;;;;;;17.68;58.31;100692.84;4892690;29;20614;-78
2022/09/25 12:03:29;;;;;;;6.60;4.20;;;;;;;17.54;58.02;100700.72;4900563;29;20562;-80
2022/09/25 12:06:18;;;;;;;8.20;4.38;;;;;;;17.63;60.83;100688.13;4899206;29;20070;-79
2022/09/25 12:08:56;;;;;;;8.00;3.83;;;;;;;17.85;60.58;100694.94;4900940;29;20466;-79
2022/09/25 12:11:36;;;;;;;6.78;4.00;;;;;;;17.78;59.43;100672.91;4903728;29;20052;-79
2022/09/25 12:14:13;;;;;;;8.23;3.90;;;;;;;18.05;59.25;100697.56;4902145;29;20305;-80
2022/09/25 12:16:48;;;;;;;8.93;4.40;;;;;;;18.00;58.74;100670.06;4902543;29;20139;-81
2022/09/25 12:19:28;;;;;;;8.88;4.75;;;;;;;18.21;56.71;100675.97;4899328;29;20528;-80